Historyczne dane pomiarowe

Dodano dane terminowe – wersja testowa.

Dane z okresu 1951-2019

Wersja bazy: 1.34 [2019-03-16, lista zmian], aktualizacja planowana na 2019-04-15

Dane meteo z obszaru Polski uzyskane na podstawie danych udostępnionych przez Instytut Meteorologii i Gospodarki Wodnej – Państwowy Instytut Badawczy.

 

Wybierz Datę:    

       

TemperaturaWilgotnośćWiatrCiśnienieOpadyŚniegCzas trwania zjawisk
 Stacja t tx tn tng RH VA  wxwx mslp ppp RRR   cm mm wxwxwxwxwxwxwx
1999-08-14 9.1 13.7 5.3- 81.0- 3.3 0.0---- 0.0------------
1999-08-13 9.0 11.1 7.2- 94.0- 8.0 0.0---- 0.0------------
1999-08-12 10.2 12.1 8.7- 94.8- 8.0 0.7---- 0.2------------
1999-08-11 13.0 17.4 9.7- 88.0- 2.7 0.0---- 5.9------------
1999-08-10 17.2 24.5 12.7- 94.0- 6.7 0.0---- 28.0------------
1999-08-09 17.0 24.6 10.6- 78.3- 4.0 0.0---- 2.3------------
1999-08-08 16.6 23.2 13.1- 89.0- 2.7 0.0---- 0.0------------
1999-08-07 16.0 23.0 10.6- 86.8- 5.7 0.0---- 2.2------------
1999-08-06 15.9 22.0 11.2- 94.0- 5.3 2.0---- 0.2------------
1999-08-05 12.8 19.6 6.7- 83.5- 2.7 0.0---- 1.6------------
1999-08-04 11.2 16.6 5.5- 88.5- 3.3 0.0---- 0.0------------
1999-08-03 10.0 14.5 5.3- 88.8- 7.0 1.3---- 0.0------------
1999-08-02 10.5 13.1 5.8- 74.8- 4.3 3.7---- 0.1------------
1999-08-01 11.4 15.0 7.9- 94.5- 4.7 2.0---- 0.3------------
1999-07-31 11.4 16.1 6.2- 77.3- 6.3 4.0---- 4.3------------
1999-07-30 11.2 15.4 7.6- 82.8- 6.7 3.3---- 1.8------------
1999-07-29 11.1 14.4 6.8- 82.0- 6.0 3.3---- 0.0------------
1999-07-28 12.9 15.0 11.4- 98.3- 8.0 0.0---- 1.1------------
1999-07-27 14.1 15.4 13.0- 99.8- 8.0 0.7---- 24.6------------
1999-07-26 15.3 21.1 10.3- 94.8- 5.3 1.3---- 41.3------------
1999-07-25 13.0 19.4 6.0- 84.0- 7.0 0.0---- 0.0------------
1999-07-24 9.4 11.1 7.2- 95.0- 8.0 0.0---- 0.0------------
1999-07-23 9.8 13.3 7.6- 97.0- 8.0 0.0---- 23.0------------
1999-07-22 15.1 17.5 12.4- 68.8- 6.3 3.7---- 18.2------------
1999-07-21 16.9 22.7 10.2- 75.0- 4.0 3.7---- 0.0------------
1999-07-20 15.1 21.2 9.3- 77.3- 0.0 2.0---- 0.0------------
1999-07-19 13.9 19.4 7.2- 66.8- 1.3 0.0---- 0.0------------
1999-07-18 12.1 18.0 6.0- 70.3- 0.3 0.0---- 0.0------------
1999-07-17 11.5 16.0 6.6- 72.8- 2.7 1.3---- 0.0------------
1999-07-16 11.0 14.5 7.5- 83.5- 6.3 1.3---- 0.0------------
1999-07-15 11.5 14.0 9.4- 91.0- 7.7 0.0---- 0.7------------
1999-07-14 14.9 19.8 12.7- 96.0- 8.0 0.0---- 17.8------------
1999-07-13 15.6 19.5 12.5- 94.0- 7.3 1.3---- 10.9------------
1999-07-12 14.5 20.4 10.2- 80.3- 5.0 0.0---- 0.9------------
1999-07-11 13.0 14.5 11.4- 80.5- 8.0 0.0---- 5.3------------
1999-07-10 13.9 15.8 12.6- 88.8- 8.0 0.7---- 4.0------------
1999-07-09 13.0 16.4 9.5- 90.0- 7.7 0.7---- 6.1------------
1999-07-08 13.8 17.3 11.2- 90.5- 6.7 0.7---- 24.4------------
1999-07-07 19.3 23.4 15.0- 60.8- 6.7 0.0---- 24.3------------
1999-07-06 21.3 24.6 18.1- 65.3- 6.0 3.3---- 0.0------------
1999-07-05 19.5 25.3 12.0- 53.3- 0.3 4.0---- 0.0------------
1999-07-04 16.4 24.7 9.1- 75.5- 0.3 1.3---- 0.0------------
1999-07-03 14.2 18.4 8.7- 78.8- 3.3 0.7---- 0.0------------
1999-07-02 13.7 18.5 9.2- 83.3- 6.3 0.7---- 0.7------------
1999-07-01 15.2 19.6 10.2- 84.8- 6.7 2.0---- 11.9------------
1999-06-30 14.3 17.4 10.1- 91.3- 6.0 0.7---- 5.7------------
1999-06-29 13.1 18.7 8.7- 86.8- 6.3 0.0---- 0.1------------
1999-06-28 14.2 21.9 8.9- 81.5- 5.0 0.0---- 50.3------------
1999-06-27 14.6 22.6 6.9- 69.0- 2.7 2.0---- 0.0------------
1999-06-26 11.8 19.4 2.9- 66.8- 0.0 0.0---- 0.0------------
1999-06-25 7.4 12.1 2.1- 88.0- 2.7 0.7---- 0.0------------
1999-06-24 5.0 6.5 3.5- 96.3- 8.0 0.0---- 0.4------------
1999-06-23 4.0 5.0 2.9- 99.3- 8.0 0.0---- 9.0------------
1999-06-22 6.6 11.5 3.8-100.0- 8.0 0.0---- 33.2------------
1999-06-21 13.5 18.5 9.7- 91.8- 6.7 0.0---- 21.3------------
1999-06-20 13.2 16.4 10.2- 98.8- 8.0 0.0---- 4.6------------
1999-06-19 12.4 15.6 9.7- 96.5- 8.0 0.0---- 1.5------------
1999-06-18 12.4 14.5 10.7- 95.5- 8.0 0.0---- 9.9------------
1999-06-17 12.4 15.3 9.2- 98.5- 8.0 0.0---- 9.5------------
1999-06-16 13.7 16.5 11.7- 97.5- 7.7 0.0---- 4.4------------
279.7 ms

 

Źródłem pochodzenia danych jest Instytut Meteorologii i Gospodarki Wodnej – Państwowy Instytut Badawczy. Dane Instytutu Meteorologii i Gospodarki Wodnej – Państwowego Instytutu Badawczego zostały przetworzone.

Dane źródłowe można odnaleźć na stronie https://dane.imgw.pl